Terminal Aerodrome Forecast
Issued by NWS

Current Version | Previous Version | Graphics & Text | Print | Product List | Glossary On
Versions: 1 2 3 4 5 6 7 8 9 10 11 12 13 14 15 16 17 18 19 20 21 22
000
FTUS41 KPBZ 261500 AAA
TAFHLG
TAF AMD
KHLG 261510Z 2615/2712 34008KT P6SM -SHSN OVC040
      TEMPO 2617/2620 2SM -SHSN BKN025
     FM262200 33010KT P6SM BKN020=

USA.gov is the U.S. government's official web portal to all federal, state and local government web resources and services.